createdAt,value
2022-08-14T00:00:18.839Z,8.80
2022-08-14T00:03:08.866Z,9.30
2022-08-14T00:06:25.867Z,9.10
2022-08-14T00:09:15.984Z,9.40
2022-08-14T00:12:23.695Z,8.30
2022-08-14T00:15:19.602Z,8.70
2022-08-14T00:18:30.993Z,8.30
2022-08-14T00:21:31.103Z,8.20
2022-08-14T00:24:28.929Z,8.80
2022-08-14T00:27:23.307Z,8.50
2022-08-14T00:30:17.355Z,8.60
2022-08-14T00:33:16.354Z,8.80
2022-08-14T00:36:35.754Z,8.30
2022-08-14T00:39:24.559Z,8.40
2022-08-14T00:42:55.179Z,9.10
2022-08-14T00:45:38.881Z,8.50
2022-08-14T00:48:37.001Z,8.20
2022-08-14T00:51:19.567Z,8.50
2022-08-14T00:53:52.495Z,7.90
2022-08-14T00:56:45.926Z,8.40
2022-08-14T00:59:20.116Z,8.60
2022-08-14T01:02:13.559Z,8.30
2022-08-14T01:05:07.836Z,8.40
2022-08-14T01:08:01.424Z,8.40
2022-08-14T01:11:00.783Z,9.10
2022-08-14T01:14:04.817Z,8.60
2022-08-14T01:17:10.964Z,9.10
2022-08-14T01:20:27.285Z,9.00
2022-08-14T01:23:21.900Z,8.70
2022-08-14T01:26:23.310Z,8.80
2022-08-14T01:29:58.300Z,8.70
2022-08-14T01:32:42.669Z,8.60
2022-08-14T01:36:05.658Z,9.60
2022-08-14T01:38:52.162Z,9.10
2022-08-14T01:41:36.505Z,10.00
2022-08-14T01:44:33.364Z,10.00
2022-08-14T01:47:27.526Z,11.10
2022-08-14T01:50:29.281Z,10.50
2022-08-14T01:53:22.710Z,11.10
2022-08-14T01:56:12.096Z,11.70
2022-08-14T01:59:01.459Z,11.40
2022-08-14T02:01:57.800Z,11.70
2022-08-14T02:04:55.681Z,12.00
2022-08-14T02:07:55.925Z,11.90
2022-08-14T02:11:22.543Z,12.30
2022-08-14T02:14:16.050Z,12.40
2022-08-14T02:17:24.354Z,12.80
2022-08-14T02:20:20.045Z,13.80
2022-08-14T02:23:28.907Z,12.80
2022-08-14T02:26:29.663Z,12.50
2022-08-14T02:29:26.516Z,13.00
2022-08-14T02:32:42.496Z,12.70
2022-08-14T02:35:40.589Z,13.90
2022-08-14T02:38:34.971Z,14.00
2022-08-14T02:41:20.381Z,13.90
2022-08-14T02:44:07.566Z,13.10
2022-08-14T02:47:01.374Z,13.00
2022-08-14T02:49:50.558Z,13.40
2022-08-14T02:53:13.228Z,12.70
2022-08-14T02:56:03.297Z,12.80
2022-08-14T02:58:47.080Z,12.10
2022-08-14T03:01:50.563Z,12.50
2022-08-14T03:04:46.709Z,12.90
2022-08-14T03:07:40.237Z,13.30
2022-08-14T03:10:33.533Z,13.30
2022-08-14T03:13:27.579Z,12.60
2022-08-14T03:16:26.960Z,13.00
2022-08-14T03:19:20.724Z,13.20
2022-08-14T03:22:03.473Z,12.90
2022-08-14T03:24:46.169Z,13.30
2022-08-14T03:27:48.423Z,12.60
2022-08-14T03:30:54.874Z,12.70
2022-08-14T03:33:51.721Z,12.70
2022-08-14T03:37:51.953Z,13.10
2022-08-14T03:39:59.591Z,12.90
2022-08-14T03:42:53.887Z,13.20
2022-08-14T03:45:47.983Z,13.60
2022-08-14T03:48:41.441Z,12.20
2022-08-14T03:51:34.602Z,12.80
2022-08-14T03:54:26.960Z,12.60
2022-08-14T03:57:19.486Z,13.40
2022-08-14T04:00:43.530Z,14.10
2022-08-14T04:03:30.051Z,13.10
2022-08-14T04:06:22.944Z,15.00
2022-08-14T04:09:24.046Z,15.40
2022-08-14T04:12:26.099Z,14.10
2022-08-14T04:15:23.588Z,13.50
2022-08-14T04:18:09.010Z,14.20
2022-08-14T04:20:58.697Z,14.60
2022-08-14T04:23:57.104Z,13.30
2022-08-14T04:26:50.661Z,13.90
2022-08-14T04:29:45.403Z,14.40
2022-08-14T04:33:00.017Z,13.80
2022-08-14T04:35:55.580Z,14.20
2022-08-14T04:39:07.159Z,14.50
2022-08-14T04:42:18.864Z,14.00
2022-08-14T04:45:14.489Z,13.60
2022-08-14T04:48:39.818Z,14.10
2022-08-14T04:51:26.784Z,13.50
2022-08-14T04:54:07.555Z,13.80
2022-08-14T04:57:00.776Z,13.00
2022-08-14T04:59:53.970Z,12.50
2022-08-14T05:02:47.089Z,13.80
2022-08-14T05:05:40.090Z,13.40
2022-08-14T05:08:57.463Z,13.30
2022-08-14T05:11:49.871Z,14.30
2022-08-14T05:14:53.335Z,14.40
2022-08-14T05:17:58.753Z,13.70
2022-08-14T05:21:54.861Z,14.00
2022-08-14T05:24:17.731Z,13.30
2022-08-14T05:27:11.211Z,14.20
2022-08-14T05:30:08.480Z,14.20
2022-08-14T05:33:01.442Z,14.30
2022-08-14T05:35:54.696Z,14.10
2022-08-14T05:38:48.919Z,13.30
2022-08-14T05:41:52.599Z,13.40
2022-08-14T05:44:46.633Z,13.40
2022-08-14T05:47:43.168Z,12.00
2022-08-14T05:50:38.461Z,12.40
2022-08-14T05:53:34.019Z,12.50
2022-08-14T05:56:19.381Z,12.40
2022-08-14T05:58:51.411Z,13.20
2022-08-14T06:01:43.662Z,14.00
2022-08-14T06:04:35.969Z,11.80
2022-08-14T06:07:09.574Z,12.10
2022-08-14T06:10:03.791Z,12.50
2022-08-14T06:13:00.248Z,12.10
2022-08-14T06:15:31.627Z,11.30
2022-08-14T06:18:03.822Z,11.50
2022-08-14T06:20:57.221Z,12.10
2022-08-14T06:23:49.467Z,11.20
2022-08-14T06:26:41.620Z,12.40
2022-08-14T06:29:43.925Z,10.70
2022-08-14T06:32:39.334Z,10.80
2022-08-14T06:35:27.771Z,10.20
2022-08-14T06:38:23.233Z,11.10
2022-08-14T06:41:16.167Z,11.20
2022-08-14T06:44:13.011Z,12.60
2022-08-14T06:47:06.081Z,11.70
2022-08-14T06:49:58.876Z,10.70
2022-08-14T06:52:52.091Z,10.50
2022-08-14T06:55:53.291Z,10.60
2022-08-14T06:58:50.875Z,11.50
2022-08-14T07:02:01.318Z,11.00
2022-08-14T07:05:11.294Z,11.60
2022-08-14T07:08:05.962Z,10.70
2022-08-14T07:10:54.295Z,11.90
2022-08-14T07:13:43.980Z,13.10
2022-08-14T07:16:34.006Z,13.10
2022-08-14T07:19:10.042Z,13.80
2022-08-14T07:22:05.575Z,14.30
2022-08-14T07:25:11.163Z,15.10
2022-08-14T07:27:46.621Z,16.20
2022-08-14T07:30:41.948Z,15.70
2022-08-14T07:33:35.035Z,16.70
2022-08-14T07:36:27.958Z,16.40
2022-08-14T07:39:13.245Z,17.90
2022-08-14T07:42:06.410Z,17.00
2022-08-14T07:44:50.704Z,19.00
2022-08-14T07:47:25.574Z,19.00
2022-08-14T07:50:13.378Z,17.40
2022-08-14T07:53:10.745Z,15.20
2022-08-14T07:56:09.078Z,15.20
2022-08-14T07:58:58.367Z,15.70
2022-08-14T08:01:51.917Z,15.00
2022-08-14T08:04:47.539Z,14.90
2022-08-14T08:07:43.527Z,13.80
2022-08-14T08:11:02.294Z,13.90
2022-08-14T08:16:51.219Z,13.70
2022-08-14T08:19:43.492Z,15.80
2022-08-14T08:22:35.732Z,15.90
2022-08-14T08:25:30.425Z,14.30
2022-08-14T08:28:26.541Z,14.50
2022-08-14T08:31:12.222Z,13.40
2022-08-14T08:34:07.459Z,13.20
2022-08-14T08:36:49.453Z,12.70
2022-08-14T08:40:02.513Z,11.80
2022-08-14T08:42:59.238Z,12.00
2022-08-14T08:45:34.299Z,11.40
2022-08-14T08:48:31.923Z,11.30
2022-08-14T08:51:34.365Z,12.80
2022-08-14T08:54:26.652Z,12.70
2022-08-14T08:57:04.090Z,13.10
2022-08-14T09:00:02.258Z,12.80
2022-08-14T09:02:57.634Z,13.00
2022-08-14T09:05:58.013Z,13.10
2022-08-14T09:08:35.086Z,12.90
2022-08-14T09:11:29.206Z,16.30
2022-08-14T09:14:02.512Z,16.10
2022-08-14T09:16:50.486Z,15.90
2022-08-14T09:22:35.883Z,14.40
2022-08-14T09:25:10.043Z,13.60
2022-08-14T09:28:03.264Z,13.70
2022-08-14T09:30:58.130Z,13.70
2022-08-14T09:34:19.874Z,14.60
2022-08-14T09:37:30.253Z,14.70
2022-08-14T09:40:20.835Z,15.80
2022-08-14T09:43:03.873Z,18.20
2022-08-14T09:46:01.582Z,19.30
2022-08-14T09:48:39.028Z,20.10
2022-08-14T09:51:44.909Z,20.10
2022-08-14T09:54:43.233Z,20.20
2022-08-14T09:57:31.708Z,20.10
2022-08-14T10:00:43.614Z,19.40
2022-08-14T10:03:40.874Z,20.50
2022-08-14T10:06:14.307Z,20.00
2022-08-14T10:08:51.936Z,20.20
2022-08-14T10:11:43.343Z,19.40
2022-08-14T10:14:35.619Z,20.20
2022-08-14T10:17:10.671Z,19.90
2022-08-14T10:19:52.026Z,19.40
2022-08-14T10:23:15.575Z,20.00
2022-08-14T10:26:05.307Z,19.80
2022-08-14T10:29:18.821Z,18.20
2022-08-14T10:31:45.783Z,17.50
2022-08-14T10:34:29.021Z,16.70
2022-08-14T10:37:14.791Z,15.80
2022-08-14T10:40:36.762Z,15.40
2022-08-14T10:43:02.447Z,15.30
2022-08-14T10:45:42.032Z,16.20
2022-08-14T10:48:24.333Z,15.70
2022-08-14T10:51:11.178Z,15.70
2022-08-14T10:53:57.505Z,16.60
2022-08-14T10:56:36.015Z,16.30
2022-08-14T10:59:36.136Z,15.00
2022-08-14T11:02:44.654Z,15.70
2022-08-14T11:05:49.076Z,15.00
2022-08-14T11:08:37.904Z,15.10
2022-08-14T11:11:23.178Z,16.30
2022-08-14T11:14:09.769Z,16.50
2022-08-14T11:16:54.102Z,15.90
2022-08-14T11:19:38.000Z,16.20
2022-08-14T11:22:55.840Z,15.70
2022-08-14T11:25:41.276Z,15.40
2022-08-14T11:28:19.149Z,15.10
2022-08-14T11:31:04.042Z,15.90
2022-08-14T11:33:39.089Z,14.70
2022-08-14T11:36:23.748Z,15.70
2022-08-14T11:39:34.958Z,14.80
2022-08-14T11:42:57.848Z,14.80
2022-08-14T11:45:18.639Z,14.90
2022-08-14T11:49:01.562Z,14.60
2022-08-14T11:51:30.604Z,15.00
2022-08-14T11:54:08.915Z,14.40
2022-08-14T11:56:51.422Z,14.10
2022-08-14T11:59:44.098Z,13.20
2022-08-14T12:03:03.895Z,13.70
2022-08-14T12:05:49.665Z,13.70
2022-08-14T12:08:34.960Z,13.40
2022-08-14T12:11:20.083Z,13.60
2022-08-14T12:13:55.970Z,13.90
2022-08-14T12:16:29.518Z,14.00
2022-08-14T12:19:45.980Z,13.10
2022-08-14T12:22:45.902Z,14.30
2022-08-14T12:25:45.090Z,14.00
2022-08-14T12:28:59.193Z,12.90
2022-08-14T12:31:46.975Z,13.40
2022-08-14T12:34:22.822Z,12.60
2022-08-14T12:37:18.106Z,12.70
2022-08-14T12:40:20.685Z,13.30
2022-08-14T12:43:23.053Z,13.50
2022-08-14T12:46:28.781Z,13.20
2022-08-14T12:49:17.811Z,13.40
2022-08-14T12:52:17.390Z,12.60
2022-08-14T12:55:06.435Z,12.70
2022-08-14T12:58:28.647Z,13.10
2022-08-14T13:01:17.230Z,14.30
2022-08-14T13:04:17.650Z,12.90
2022-08-14T13:07:07.541Z,13.20
2022-08-14T13:09:58.112Z,12.40
2022-08-14T13:12:56.646Z,13.40
2022-08-14T13:15:38.345Z,13.60
2022-08-14T13:18:23.328Z,13.00
2022-08-14T13:21:05.651Z,12.70
2022-08-14T13:23:39.119Z,13.50
2022-08-14T13:26:13.640Z,13.10
2022-08-14T13:29:02.199Z,13.70
2022-08-14T13:31:52.221Z,13.20
2022-08-14T13:34:33.319Z,12.50
2022-08-14T13:37:25.961Z,12.60
2022-08-14T13:40:01.229Z,12.90
2022-08-14T13:42:42.684Z,13.60
2022-08-14T13:45:18.032Z,13.70
2022-08-14T13:48:31.450Z,13.60
2022-08-14T13:51:27.483Z,13.10
2022-08-14T13:54:24.951Z,14.40
2022-08-14T14:00:08.650Z,15.50
2022-08-14T14:03:08.646Z,15.10
2022-08-14T14:06:03.119Z,13.90
2022-08-14T14:08:59.173Z,14.70
2022-08-14T14:11:33.952Z,14.80
2022-08-14T14:14:10.223Z,12.60
2022-08-14T14:17:03.717Z,13.30
2022-08-14T14:19:59.809Z,12.70
2022-08-14T14:23:02.551Z,12.90
2022-08-14T14:25:47.981Z,13.20
2022-08-14T14:28:26.063Z,13.90
2022-08-14T14:31:06.999Z,13.20
2022-08-14T14:33:48.887Z,13.10
2022-08-14T14:36:26.687Z,13.60
2022-08-14T14:39:05.503Z,13.80
2022-08-14T14:41:43.711Z,15.40
2022-08-14T14:44:16.644Z,13.60
2022-08-14T14:46:50.989Z,14.10
2022-08-14T14:49:41.887Z,14.00
2022-08-14T14:52:28.822Z,13.80
2022-08-14T14:55:16.877Z,13.70
2022-08-14T14:57:52.066Z,13.60
2022-08-14T15:00:31.107Z,13.40
2022-08-14T15:03:07.365Z,14.60
2022-08-14T15:05:40.076Z,13.70
2022-08-14T15:08:17.178Z,14.10
2022-08-14T15:11:00.148Z,13.70
2022-08-14T15:13:43.041Z,15.50
2022-08-14T15:16:15.963Z,11.30
2022-08-14T15:18:52.847Z,8.30
2022-08-14T15:21:45.707Z,8.90
2022-08-14T15:24:29.210Z,8.40
2022-08-14T15:27:12.342Z,8.60
2022-08-14T15:29:55.421Z,7.80
2022-08-14T15:32:37.553Z,8.00
2022-08-14T15:35:11.960Z,7.00
2022-08-14T15:37:48.953Z,7.90
2022-08-14T15:40:41.106Z,7.80
2022-08-14T15:46:01.300Z,7.70
2022-08-14T15:48:34.988Z,7.90
2022-08-14T15:51:19.141Z,8.10
2022-08-14T15:54:02.278Z,7.30
2022-08-14T15:56:42.712Z,7.60
2022-08-14T15:59:25.544Z,7.60
2022-08-14T16:01:59.175Z,7.90
2022-08-14T16:04:51.829Z,8.20
2022-08-14T16:07:44.586Z,8.20
2022-08-14T16:10:37.091Z,7.80
2022-08-14T16:13:41.349Z,9.00
2022-08-14T16:16:34.604Z,7.80
2022-08-14T16:19:14.237Z,7.80
2022-08-14T16:22:58.551Z,8.70
2022-08-14T16:25:02.271Z,8.00
2022-08-14T16:27:41.398Z,6.30
2022-08-14T16:30:25.076Z,6.50
2022-08-14T16:33:11.603Z,6.60
2022-08-14T16:36:19.741Z,7.00
2022-08-14T16:39:03.494Z,7.50
2022-08-14T16:41:36.298Z,7.70
2022-08-14T16:44:31.923Z,8.10
2022-08-14T16:47:34.849Z,8.00
2022-08-14T16:50:40.715Z,7.70
2022-08-14T16:53:10.391Z,8.00
2022-08-14T16:55:53.876Z,7.00
2022-08-14T16:58:39.031Z,7.30
2022-08-14T17:01:24.413Z,7.20
2022-08-14T17:04:14.977Z,7.60
2022-08-14T17:06:58.831Z,7.90
2022-08-14T17:09:43.610Z,8.00
2022-08-14T17:12:28.416Z,7.80
2022-08-14T17:15:10.513Z,8.00
2022-08-14T17:17:50.107Z,7.70
2022-08-14T17:20:54.618Z,7.90
2022-08-14T17:23:30.019Z,7.10
2022-08-14T17:26:04.934Z,7.70
2022-08-14T17:28:51.661Z,7.40
2022-08-14T17:31:58.927Z,7.10
2022-08-14T17:34:26.258Z,8.60
2022-08-14T17:37:02.828Z,7.90
2022-08-14T17:39:40.115Z,8.40
2022-08-14T17:42:13.449Z,8.70
2022-08-14T17:44:47.247Z,8.70
2022-08-14T17:47:27.682Z,8.80
2022-08-14T17:51:01.121Z,8.70
2022-08-14T17:53:11.505Z,7.90
2022-08-14T17:56:01.183Z,8.20
2022-08-14T17:58:58.114Z,8.50
2022-08-14T18:01:52.136Z,8.90
2022-08-14T18:04:45.121Z,9.30
2022-08-14T18:07:59.832Z,9.50
2022-08-14T18:10:55.804Z,8.80
2022-08-14T18:13:51.420Z,8.20
2022-08-14T18:16:44.756Z,8.10
2022-08-14T18:19:41.500Z,8.10
2022-08-14T18:22:31.010Z,8.40
2022-08-14T18:28:51.655Z,10.00
2022-08-14T18:31:43.375Z,9.90
2022-08-14T18:34:36.002Z,8.80
2022-08-14T18:37:22.359Z,8.30
2022-08-14T18:40:35.162Z,9.00
2022-08-14T18:43:45.590Z,9.60
2022-08-14T18:47:15.979Z,8.40
2022-08-14T18:50:26.892Z,8.30
2022-08-14T18:53:11.510Z,9.00
2022-08-14T18:55:55.991Z,8.80
2022-08-14T18:58:58.761Z,9.00
2022-08-14T19:01:33.828Z,8.40
2022-08-14T19:04:08.474Z,8.60
2022-08-14T19:06:56.348Z,9.00
2022-08-14T19:10:00.691Z,8.90
2022-08-14T19:13:12.132Z,9.40
2022-08-14T19:15:56.131Z,10.50
2022-08-14T19:18:38.360Z,10.90
2022-08-14T19:21:29.860Z,9.50
2022-08-14T19:24:29.174Z,9.10
2022-08-14T19:27:24.587Z,9.90
2022-08-14T19:30:26.202Z,9.60
2022-08-14T19:33:05.417Z,9.10
2022-08-14T19:35:56.058Z,9.40
2022-08-14T19:38:54.328Z,9.40
2022-08-14T19:41:34.282Z,10.20
2022-08-14T19:44:15.969Z,10.00
2022-08-14T19:47:11.442Z,11.20
2022-08-14T19:50:30.716Z,10.60
2022-08-14T19:52:48.755Z,10.50
2022-08-14T19:55:34.313Z,10.30
2022-08-14T19:58:12.649Z,9.30
2022-08-14T20:01:08.574Z,10.00
2022-08-14T20:04:02.392Z,10.80
2022-08-14T20:06:46.701Z,11.30
2022-08-14T20:11:06.795Z,10.70
2022-08-14T20:12:29.296Z,9.70
2022-08-14T20:15:21.231Z,10.40
2022-08-14T20:17:58.024Z,10.70
2022-08-14T20:20:31.616Z,10.40
2022-08-14T20:23:13.462Z,9.70
2022-08-14T20:25:56.525Z,10.00
2022-08-14T20:28:35.461Z,9.30
2022-08-14T20:34:24.850Z,9.20
2022-08-14T20:37:10.417Z,9.90
2022-08-14T20:39:53.900Z,8.70
2022-08-14T20:42:57.470Z,8.90
2022-08-14T20:45:32.796Z,9.60
2022-08-14T20:48:09.520Z,9.80
2022-08-14T20:50:49.644Z,9.60
2022-08-14T20:53:33.682Z,11.20
2022-08-14T20:56:28.962Z,9.40
2022-08-14T20:59:19.652Z,9.10
2022-08-14T21:02:29.591Z,8.80
2022-08-14T21:05:16.324Z,8.80
2022-08-14T21:08:08.097Z,9.00
2022-08-14T21:10:47.382Z,9.60
2022-08-14T21:14:19.695Z,8.40
2022-08-14T21:16:33.176Z,8.80
2022-08-14T21:19:16.286Z,9.60
2022-08-14T21:22:02.522Z,8.90
2022-08-14T21:24:39.309Z,9.50
2022-08-14T21:27:25.442Z,10.10
2022-08-14T21:30:12.458Z,9.60
2022-08-14T21:35:44.607Z,10.40
2022-08-14T21:38:34.158Z,8.80
2022-08-14T21:41:43.497Z,8.90
2022-08-14T21:44:20.501Z,9.10
2022-08-14T21:46:57.585Z,9.70
2022-08-14T21:49:38.853Z,9.00
2022-08-14T21:52:52.199Z,8.80
2022-08-14T21:55:23.544Z,10.10
2022-08-14T21:58:53.632Z,9.10
2022-08-14T22:00:52.886Z,9.50
2022-08-14T22:03:36.483Z,9.50
2022-08-14T22:06:19.852Z,9.00
2022-08-14T22:08:52.939Z,9.40
2022-08-14T22:11:27.941Z,9.20
2022-08-14T22:14:25.651Z,9.60
2022-08-14T22:17:12.687Z,9.10
2022-08-14T22:19:57.378Z,9.30
2022-08-14T22:22:33.944Z,9.00
2022-08-14T22:25:08.778Z,10.50
2022-08-14T22:28:12.206Z,9.80
2022-08-14T22:30:45.381Z,9.70
2022-08-14T22:33:31.038Z,10.20
2022-08-14T22:36:34.170Z,10.10
2022-08-14T22:40:16.947Z,11.40
2022-08-14T22:42:22.650Z,11.10
2022-08-14T22:45:08.233Z,11.10
2022-08-14T22:47:41.823Z,11.10
2022-08-14T22:50:31.672Z,10.70
2022-08-14T22:53:15.768Z,11.60
2022-08-14T22:55:54.844Z,11.90
2022-08-14T22:58:39.721Z,11.50
2022-08-14T23:01:22.927Z,12.00
2022-08-14T23:03:56.122Z,12.60
2022-08-14T23:07:02.499Z,12.90
2022-08-14T23:09:35.183Z,12.80
2022-08-14T23:12:28.406Z,12.50
2022-08-14T23:15:14.141Z,12.70
2022-08-14T23:17:59.017Z,12.30
2022-08-14T23:20:36.296Z,12.10
2022-08-14T23:23:29.437Z,12.80
2022-08-14T23:26:48.180Z,12.70
2022-08-14T23:29:09.493Z,12.80
2022-08-14T23:31:47.932Z,11.70
2022-08-14T23:34:22.911Z,12.60
2022-08-14T23:36:58.504Z,11.80
2022-08-14T23:39:56.505Z,12.40
2022-08-14T23:42:40.013Z,12.50
2022-08-14T23:45:37.654Z,11.60
2022-08-14T23:48:12.563Z,11.90
2022-08-14T23:50:55.609Z,11.40
2022-08-14T23:53:48.629Z,10.90
2022-08-14T23:56:31.780Z,10.90
2022-08-14T23:59:05.067Z,10.70
